createdAt,value
2019-06-01T00:01:17.792Z,99630.34
2019-06-01T00:03:48.502Z,99635.19
2019-06-01T00:06:18.150Z,99630.80
2019-06-01T00:08:47.727Z,99628.95
2019-06-01T00:11:17.262Z,99631.20
2019-06-01T00:13:47.703Z,99627.44
2019-06-01T00:16:17.285Z,99629.89
2019-06-01T00:18:48.233Z,99627.17
2019-06-01T00:21:17.952Z,99633.52
2019-06-01T00:23:48.691Z,99626.98
2019-06-01T00:26:18.300Z,99623.34
2019-06-01T00:28:47.957Z,99623.91
2019-06-01T00:31:17.670Z,99624.11
2019-06-01T00:33:47.569Z,99622.06
2019-06-01T00:36:17.277Z,99628.41
2019-06-01T00:38:47.824Z,99621.42
2019-06-01T00:41:17.526Z,99621.52
2019-06-01T00:43:48.412Z,99614.53
2019-06-01T00:46:18.705Z,99617.30
2019-06-01T00:48:49.865Z,99611.62
2019-06-01T00:51:19.586Z,99617.60
2019-06-01T00:53:49.672Z,99612.37
2019-06-01T00:56:19.332Z,99612.37
2019-06-01T00:58:49.835Z,99610.87
2019-06-01T01:01:19.543Z,99608.91
2019-06-01T01:03:50.124Z,99605.08
2019-06-01T01:06:19.922Z,99605.58
2019-06-01T01:08:50.933Z,99614.73
2019-06-01T01:11:20.484Z,99608.65
2019-06-01T01:13:51.195Z,99615.19
2019-06-01T01:16:21.256Z,99616.12
2019-06-01T01:18:51.920Z,99616.03
2019-06-01T01:21:21.651Z,99621.82
2019-06-01T01:23:52.991Z,99618.65
2019-06-01T01:26:22.439Z,99618.16
2019-06-01T01:28:52.945Z,99620.77
2019-06-01T01:31:22.662Z,99617.44
2019-06-01T01:33:53.363Z,99614.07
2019-06-01T01:36:22.987Z,99614.07
2019-06-01T01:38:52.519Z,99618.34
2019-06-01T01:41:22.050Z,99616.38
2019-06-01T01:43:52.790Z,99618.94
2019-06-01T01:46:22.473Z,99618.34
2019-06-01T01:48:52.077Z,99619.64
2019-06-01T01:51:21.590Z,99615.00
2019-06-01T01:53:51.095Z,99610.79
2019-06-01T01:56:20.904Z,99613.80
2019-06-01T01:58:50.454Z,99610.23
2019-06-01T02:01:22.772Z,99614.80
2019-06-01T02:03:52.219Z,99616.77
2019-06-01T02:06:22.726Z,99612.55
2019-06-01T02:08:53.514Z,99611.24
2019-06-01T02:11:23.460Z,99607.52
2019-06-01T02:13:53.645Z,99604.16
2019-06-01T02:16:23.560Z,99605.41
2019-06-01T02:18:54.342Z,99605.50
2019-06-01T02:21:24.449Z,99609.91
2019-06-01T02:23:54.826Z,99603.55
2019-06-01T02:26:24.473Z,99598.61
2019-06-01T02:28:55.212Z,99599.17
2019-06-01T02:31:39.797Z,99600.93
2019-06-01T02:33:56.450Z,99592.92
2019-06-01T02:36:26.544Z,99599.06
2019-06-01T02:38:56.535Z,99598.89
2019-06-01T02:41:26.158Z,99595.52
2019-06-01T02:43:57.289Z,99594.67
2019-06-01T02:46:27.198Z,99591.72
2019-06-01T02:48:57.398Z,99589.45
2019-06-01T02:51:27.162Z,99594.02
2019-06-01T02:53:57.692Z,99597.74
2019-06-01T02:56:27.301Z,99593.16
2019-06-01T02:58:58.175Z,99598.95
2019-06-01T03:01:38.710Z,99602.04
2019-06-01T03:04:11.766Z,99606.06
2019-06-01T03:06:44.045Z,99603.42
2019-06-01T03:09:14.708Z,99615.61
2019-06-01T03:11:44.480Z,99615.43
2019-06-01T03:14:14.078Z,99610.73
2019-06-01T03:16:44.801Z,99614.83
2019-06-01T03:19:17.141Z,99613.91
2019-06-01T03:21:49.495Z,99607.02
2019-06-01T03:24:23.931Z,99611.46
2019-06-01T03:26:55.427Z,99608.61
2019-06-01T03:29:30.245Z,99604.08
2019-06-01T03:32:19.130Z,99604.17
2019-06-01T03:34:31.155Z,99609.06
2019-06-01T03:37:02.772Z,99603.17
2019-06-01T03:39:32.863Z,99610.16
2019-06-01T03:42:03.319Z,99610.91
2019-06-01T03:44:33.119Z,99610.77
2019-06-01T03:47:03.857Z,99608.91
2019-06-01T03:49:33.549Z,99608.82
2019-06-01T03:52:03.133Z,99607.13
2019-06-01T03:54:32.673Z,99606.39
2019-06-01T03:57:03.560Z,99611.34
2019-06-01T03:59:33.415Z,99608.73
2019-06-01T04:02:03.301Z,99606.58
2019-06-01T04:04:32.829Z,99605.69
2019-06-01T04:07:03.401Z,99606.91
2019-06-01T04:09:33.061Z,99611.45
2019-06-01T04:12:03.486Z,99606.69
2019-06-01T04:14:33.076Z,99601.62
2019-06-01T04:17:04.032Z,99609.88
2019-06-01T04:19:33.808Z,99609.20
2019-06-01T04:22:04.043Z,99610.06
2019-06-01T04:24:33.696Z,99610.03
2019-06-01T04:27:04.114Z,99611.00
2019-06-01T04:29:33.822Z,99607.09
2019-06-01T04:32:04.484Z,99609.48
2019-06-01T04:34:35.816Z,99608.84
2019-06-01T04:37:05.587Z,99611.58
2019-06-01T04:39:35.105Z,99607.61
2019-06-01T04:42:05.560Z,99609.64
2019-06-01T04:44:35.259Z,99605.27
2019-06-01T04:47:06.569Z,99605.42
2019-06-01T04:49:36.303Z,99613.70
2019-06-01T04:52:06.770Z,99620.72
2019-06-01T04:54:36.410Z,99620.53
2019-06-01T04:57:06.781Z,99617.74
2019-06-01T04:59:37.893Z,99617.84
2019-06-01T05:02:09.074Z,99616.32
2019-06-01T05:04:38.954Z,99618.84
2019-06-01T05:07:09.258Z,99615.47
2019-06-01T05:09:39.363Z,99621.42
2019-06-01T05:12:09.351Z,99620.20
2019-06-01T05:14:39.301Z,99617.41
2019-06-01T05:17:10.024Z,99619.66
2019-06-01T05:19:39.733Z,99618.41
2019-06-01T05:22:10.417Z,99624.05
2019-06-01T05:24:40.118Z,99621.36
2019-06-01T05:27:11.048Z,99612.48
2019-06-01T05:29:40.747Z,99621.53
2019-06-01T05:32:10.455Z,99624.33
2019-06-01T05:34:40.062Z,99620.32
2019-06-01T05:37:12.346Z,99621.54
2019-06-01T05:39:42.599Z,99624.91
2019-06-01T05:42:12.543Z,99624.45
2019-06-01T05:44:42.112Z,99626.70
2019-06-01T05:47:14.225Z,99624.29
2019-06-01T05:49:43.841Z,99624.41
2019-06-01T05:52:14.441Z,99627.20
2019-06-01T05:54:44.040Z,99621.34
2019-06-01T05:57:14.620Z,99618.14
2019-06-01T05:59:44.261Z,99614.53
2019-06-01T06:02:13.795Z,99607.25
2019-06-01T06:04:43.613Z,99614.53
2019-06-01T06:07:13.155Z,99616.30
2019-06-01T06:09:42.694Z,99614.09
2019-06-01T06:12:13.209Z,99616.61
2019-06-01T06:14:42.816Z,99613.41
2019-06-01T06:17:14.558Z,99616.78
2019-06-01T06:19:43.598Z,99616.44
2019-06-01T06:22:14.154Z,99616.80
2019-06-01T06:24:43.829Z,99611.87
2019-06-01T06:27:14.378Z,99608.97
2019-06-01T06:29:44.379Z,99607.21
2019-06-01T06:32:15.000Z,99604.11
2019-06-01T06:34:44.785Z,99608.97
2019-06-01T06:37:15.540Z,99615.16
2019-06-01T06:39:45.149Z,99613.84
2019-06-01T06:42:14.683Z,99609.86
2019-06-01T06:44:44.262Z,99610.69
2019-06-01T06:47:14.700Z,99608.56
2019-06-01T06:49:44.381Z,99608.27
2019-06-01T06:52:15.187Z,99610.80
2019-06-01T06:54:45.206Z,99604.16
2019-06-01T06:57:15.879Z,99605.56
2019-06-01T06:59:46.013Z,99605.47
2019-06-01T07:02:16.691Z,99614.92
2019-06-01T07:04:46.341Z,99608.74
2019-06-01T07:07:17.499Z,99609.95
2019-06-01T07:09:47.168Z,99609.59
2019-06-01T07:12:16.704Z,99606.23
2019-06-01T07:14:46.224Z,99610.97
2019-06-01T07:17:16.076Z,99609.30
2019-06-01T07:19:45.762Z,99600.41
2019-06-01T07:22:17.133Z,99604.73
2019-06-01T07:24:46.523Z,99605.83
2019-06-01T07:27:16.056Z,99611.25
2019-06-01T07:29:45.565Z,99605.63
2019-06-01T07:32:15.148Z,99599.94
2019-06-01T07:34:44.663Z,99604.13
2019-06-01T07:37:14.467Z,99602.81
2019-06-01T07:39:43.981Z,99601.90
2019-06-01T07:42:13.563Z,99604.22
2019-06-01T07:44:43.130Z,99600.58
2019-06-01T07:47:12.666Z,99600.48
2019-06-01T07:49:42.177Z,99599.83
2019-06-01T07:52:13.426Z,99592.72
2019-06-01T07:54:43.017Z,99590.00
2019-06-01T07:57:12.551Z,99591.47
2019-06-01T07:59:42.072Z,99589.28
2019-06-01T08:02:11.695Z,99589.58
2019-06-01T08:04:53.676Z,99591.80
2019-06-01T08:07:12.469Z,99588.73
2019-06-01T08:09:41.968Z,99585.91
2019-06-01T08:12:11.507Z,99579.19
2019-06-01T08:14:41.013Z,99579.49
2019-06-01T08:17:10.547Z,99575.42
2019-06-01T08:19:40.128Z,99570.20
2019-06-01T08:22:09.751Z,99575.14
2019-06-01T08:24:39.253Z,99574.22
2019-06-01T08:27:08.788Z,99566.72
2019-06-01T08:29:38.647Z,99565.63
2019-06-01T08:32:08.242Z,99560.84
2019-06-01T08:34:37.752Z,99555.59
2019-06-01T08:37:07.298Z,99553.89
2019-06-01T08:39:36.800Z,99557.30
2019-06-01T08:42:06.348Z,99553.09
2019-06-01T08:44:35.841Z,99548.34
2019-06-01T08:47:05.448Z,99550.75
2019-06-01T08:49:34.957Z,99551.33
2019-06-01T08:52:04.800Z,99539.69
2019-06-01T08:54:34.476Z,99542.31
2019-06-01T08:57:04.965Z,99543.97
2019-06-01T08:59:34.924Z,99542.66
2019-06-01T09:02:04.610Z,99539.62
2019-06-01T09:04:34.948Z,99534.94
2019-06-01T09:07:04.666Z,99539.61
2019-06-01T09:09:35.170Z,99533.56
2019-06-01T09:12:05.095Z,99531.20
2019-06-01T09:14:35.572Z,99531.52
2019-06-01T09:17:05.371Z,99524.42
2019-06-01T09:19:35.764Z,99526.31
2019-06-01T09:22:05.516Z,99523.34
2019-06-01T09:24:36.248Z,99518.70
2019-06-01T09:27:06.002Z,99517.44
2019-06-01T09:29:36.207Z,99516.16
2019-06-01T09:32:10.618Z,99513.47
2019-06-01T09:34:37.622Z,99505.81
2019-06-01T09:37:07.134Z,99509.49
2019-06-01T09:39:37.314Z,99510.91
2019-06-01T09:42:07.022Z,99508.80
2019-06-01T09:44:37.370Z,99505.61
2019-06-01T09:47:07.060Z,99507.19
2019-06-01T09:49:37.902Z,99503.86
2019-06-01T09:52:12.029Z,99502.52
2019-06-01T09:54:39.287Z,99508.98
2019-06-01T09:57:10.296Z,99505.03
2019-06-01T09:59:39.805Z,99501.45
2019-06-01T10:02:09.919Z,99504.56
2019-06-01T10:04:40.586Z,99500.58
2019-06-01T10:07:11.798Z,99505.35
2019-06-01T10:09:42.201Z,99502.25
2019-06-01T10:12:11.828Z,99495.08
2019-06-01T10:14:42.466Z,99494.77
2019-06-01T10:17:13.691Z,99495.19
2019-06-01T10:19:43.227Z,99490.95
2019-06-01T10:22:12.755Z,99491.90
2019-06-01T10:24:42.290Z,99488.02
2019-06-01T10:27:11.802Z,99494.34
2019-06-01T10:29:41.349Z,99492.89
2019-06-01T10:32:10.933Z,99489.05
2019-06-01T10:34:40.469Z,99479.86
2019-06-01T10:37:11.620Z,99481.13
2019-06-01T10:39:41.613Z,99476.80
2019-06-01T10:42:11.179Z,99472.50
2019-06-01T10:44:45.414Z,99470.50
2019-06-01T10:47:12.195Z,99472.39
2019-06-01T10:49:42.216Z,99472.34
2019-06-01T10:52:11.782Z,99473.63
2019-06-01T10:54:42.481Z,99469.74
2019-06-01T10:57:12.078Z,99470.88
2019-06-01T10:59:42.628Z,99466.66
2019-06-01T11:02:12.244Z,99468.36
2019-06-01T11:04:43.238Z,99466.31
2019-06-01T11:07:12.978Z,99454.77
2019-06-01T11:09:43.245Z,99453.39
2019-06-01T11:12:12.906Z,99455.50
2019-06-01T11:14:43.338Z,99451.50
2019-06-01T11:17:12.934Z,99445.47
2019-06-01T11:19:43.624Z,99448.53
2019-06-01T11:22:13.265Z,99443.63
2019-06-01T11:24:44.016Z,99437.38
2019-06-01T11:27:13.534Z,99432.62
2019-06-01T11:29:50.999Z,99443.80
2019-06-01T11:32:14.361Z,99430.54
2019-06-01T11:34:44.540Z,99431.47
2019-06-01T11:37:15.540Z,99425.81
2019-06-01T11:39:45.610Z,99421.84
2019-06-01T11:42:15.162Z,99419.02
2019-06-01T11:44:44.964Z,99417.62
2019-06-01T11:47:14.716Z,99410.32
2019-06-01T11:49:45.083Z,99408.72
2019-06-01T11:52:14.786Z,99402.50
2019-06-01T11:54:45.460Z,99407.14
2019-06-01T11:57:15.111Z,99392.03
2019-06-01T11:59:45.671Z,99394.66
2019-06-01T12:02:15.381Z,99382.58
2019-06-01T12:04:46.244Z,99389.13
2019-06-01T12:07:17.852Z,99384.91
2019-06-01T12:09:47.247Z,99382.61
2019-06-01T12:12:16.760Z,99380.77
2019-06-01T12:14:46.804Z,99388.58
2019-06-01T12:17:16.762Z,99382.84
2019-06-01T12:19:46.930Z,99372.50
2019-06-01T12:22:16.704Z,99369.66
2019-06-01T12:24:47.353Z,99367.64
2019-06-01T12:27:17.030Z,99366.86
2019-06-01T12:29:47.871Z,99367.73
2019-06-01T12:32:17.857Z,99362.53
2019-06-01T12:34:48.517Z,99370.36
2019-06-01T12:37:36.210Z,99363.99
2019-06-01T12:39:52.095Z,99354.77
2019-06-01T12:42:20.797Z,99360.77
2019-06-01T12:44:50.309Z,99359.77
2019-06-01T12:47:19.836Z,99356.39
2019-06-01T12:49:49.352Z,99352.56
2019-06-01T12:52:18.882Z,99347.33
2019-06-01T12:54:49.033Z,99349.23
2019-06-01T12:57:18.778Z,99335.43
2019-06-01T12:59:48.295Z,99339.34
2019-06-01T13:02:17.825Z,99331.59
2019-06-01T13:04:47.334Z,99329.22
2019-06-01T13:07:16.866Z,99324.37
2019-06-01T13:09:46.692Z,99327.10
2019-06-01T13:12:16.227Z,99318.44
2019-06-01T13:14:45.736Z,99311.38
2019-06-01T13:17:15.264Z,99309.17
2019-06-01T13:19:45.309Z,99304.23
2019-06-01T13:22:15.341Z,99307.72
2019-06-01T13:24:45.759Z,99300.65
2019-06-01T13:27:15.538Z,99299.34
2019-06-01T13:29:45.804Z,99298.40
2019-06-01T13:32:15.461Z,99297.80
2019-06-01T13:34:44.971Z,99298.16
2019-06-01T13:37:14.506Z,99286.44
2019-06-01T13:39:45.174Z,99286.69
2019-06-01T13:42:15.272Z,99288.20
2019-06-01T13:44:45.423Z,99276.13
2019-06-01T13:47:14.991Z,99277.93
2019-06-01T13:49:46.398Z,99273.94
2019-06-01T13:52:16.165Z,99280.98
2019-06-01T13:54:46.451Z,99267.19
2019-06-01T13:57:16.082Z,99269.44
2019-06-01T13:59:46.858Z,99269.45
2019-06-01T14:02:16.537Z,99265.52
2019-06-01T14:04:47.541Z,99262.23
2019-06-01T14:07:17.166Z,99263.41
2019-06-01T14:09:47.097Z,99261.59
2019-06-01T14:12:16.782Z,99256.94
2019-06-01T14:14:47.459Z,99255.17
2019-06-01T14:17:17.110Z,99249.01
2019-06-01T14:19:47.562Z,99247.93
2019-06-01T14:22:17.420Z,99249.92
2019-06-01T14:25:13.510Z,99247.27
2019-06-01T14:27:38.740Z,99242.81
2019-06-01T14:30:09.193Z,99231.48
2019-06-01T14:32:40.050Z,99237.50
2019-06-01T14:35:09.793Z,99231.02
2019-06-01T14:37:39.357Z,99233.23
2019-06-01T14:40:09.174Z,99228.23
2019-06-01T14:42:38.707Z,99230.87
2019-06-01T14:45:09.548Z,99232.36
2019-06-01T14:47:39.072Z,99227.23
2019-06-01T14:50:10.092Z,99220.58
2019-06-01T14:52:39.987Z,99223.27
2019-06-01T14:55:10.840Z,99221.08
2019-06-01T14:57:40.392Z,99212.27
2019-06-01T15:00:11.722Z,99208.95
2019-06-01T15:02:41.343Z,99211.09
2019-06-01T15:05:11.970Z,99211.61
2019-06-01T15:07:41.583Z,99204.12
2019-06-01T15:10:12.256Z,99203.16
2019-06-01T15:13:03.399Z,99197.20
2019-06-01T15:15:32.549Z,99206.34
2019-06-01T15:18:05.115Z,99203.03
2019-06-01T15:20:33.716Z,99201.51
2019-06-01T15:23:03.673Z,99194.19
2019-06-01T15:25:33.426Z,99200.69
2019-06-01T15:28:04.009Z,99197.03
2019-06-01T15:30:33.925Z,99182.09
2019-06-01T15:33:03.607Z,99191.06
2019-06-01T15:35:33.126Z,99187.41
2019-06-01T15:38:04.725Z,99187.23
2019-06-01T15:40:33.901Z,99183.09
2019-06-01T15:43:03.771Z,99181.75
2019-06-01T15:45:33.275Z,99178.80
2019-06-01T15:48:02.837Z,99174.12
2019-06-01T15:50:32.411Z,99179.77
2019-06-01T15:53:03.383Z,99171.28
2019-06-01T15:55:33.041Z,99168.13
2019-06-01T15:58:03.019Z,99171.78
2019-06-01T16:00:32.736Z,99170.78
2019-06-01T16:03:03.147Z,99174.44
2019-06-01T16:05:32.784Z,99178.09
2019-06-01T16:08:03.581Z,99177.28
2019-06-01T16:10:33.305Z,99171.30
2019-06-01T16:13:04.321Z,99165.98
2019-06-01T16:15:34.190Z,99165.33
2019-06-01T16:18:04.287Z,99163.83
2019-06-01T16:20:33.878Z,99167.48
2019-06-01T16:23:05.057Z,99158.34
2019-06-01T16:25:34.875Z,99160.19
2019-06-01T16:28:05.753Z,99156.53
2019-06-01T16:30:35.376Z,99157.20
2019-06-01T16:33:05.321Z,99149.73
2019-06-01T16:35:34.855Z,99152.05
2019-06-01T16:38:05.733Z,99151.73
2019-06-01T16:40:35.486Z,99155.18
2019-06-01T16:43:05.682Z,99150.21
2019-06-01T16:45:35.392Z,99149.19
2019-06-01T16:48:06.625Z,99145.25
2019-06-01T16:50:36.239Z,99145.25
2019-06-01T16:53:06.377Z,99139.63
2019-06-01T16:55:36.082Z,99144.75
2019-06-01T16:58:06.689Z,99138.13
2019-06-01T17:00:36.514Z,99137.95
2019-06-01T17:03:08.860Z,99139.72
2019-06-01T17:05:37.616Z,99138.22
2019-06-01T17:08:07.140Z,99146.33
2019-06-01T17:10:36.817Z,99139.19
2019-06-01T17:13:08.362Z,99145.48
2019-06-01T17:15:37.661Z,99146.47
2019-06-01T17:18:10.325Z,99152.45
2019-06-01T17:20:52.698Z,99151.11
2019-06-01T17:23:27.354Z,99147.77
2019-06-01T17:25:53.541Z,99144.11
2019-06-01T17:28:23.053Z,99145.42
2019-06-01T17:30:52.896Z,99142.28
2019-06-01T17:33:22.413Z,99143.61
2019-06-01T17:35:51.946Z,99137.12
2019-06-01T17:38:21.452Z,99141.28
2019-06-01T17:40:50.981Z,99141.31
2019-06-01T17:43:20.828Z,99128.86
2019-06-01T17:45:50.434Z,99132.52
2019-06-01T17:48:26.422Z,99136.98
2019-06-01T17:50:51.205Z,99131.17
2019-06-01T17:53:20.714Z,99136.77
2019-06-01T17:55:50.261Z,99132.16
2019-06-01T17:58:19.844Z,99136.76
2019-06-01T18:00:49.517Z,99132.23
2019-06-01T18:03:19.026Z,99132.40
2019-06-01T18:05:48.658Z,99138.84
2019-06-01T18:08:18.235Z,99134.16
2019-06-01T18:10:54.446Z,99132.32
2019-06-01T18:13:19.204Z,99132.97
2019-06-01T18:15:50.075Z,99136.42
2019-06-01T18:18:20.107Z,99133.97
2019-06-01T18:20:49.778Z,99136.75
2019-06-01T18:23:19.289Z,99133.75
2019-06-01T18:25:49.121Z,99131.58
2019-06-01T18:28:19.903Z,99133.84
2019-06-01T18:30:51.427Z,99139.62
2019-06-01T18:33:21.244Z,99130.64
2019-06-01T18:35:50.870Z,99132.77
2019-06-01T18:38:20.526Z,99127.91
2019-06-01T18:40:50.494Z,99129.20
2019-06-01T18:43:20.148Z,99130.32
2019-06-01T18:45:50.128Z,99136.91
2019-06-01T18:48:20.917Z,99130.23
2019-06-01T18:50:50.556Z,99134.80
2019-06-01T18:53:20.565Z,99128.45
2019-06-01T18:55:50.183Z,99130.09
2019-06-01T18:58:19.767Z,99131.05
2019-06-01T19:00:50.136Z,99122.27
2019-06-01T19:03:19.707Z,99126.72
2019-06-01T19:05:49.317Z,99123.69
2019-06-01T19:08:19.185Z,99121.78
2019-06-01T19:10:49.676Z,99124.51
2019-06-01T19:13:20.089Z,99127.26
2019-06-01T19:15:49.613Z,99126.25
2019-06-01T19:18:20.039Z,99135.60
2019-06-01T19:20:49.574Z,99135.22
2019-06-01T19:23:21.771Z,99140.67
2019-06-01T19:25:50.358Z,99139.87
2019-06-01T19:28:20.133Z,99145.67
2019-06-01T19:30:49.753Z,99132.60
2019-06-01T19:33:19.677Z,99151.38
2019-06-01T19:35:50.049Z,99152.27
2019-06-01T19:38:20.975Z,99152.72
2019-06-01T19:40:50.640Z,99164.78
2019-06-01T19:43:20.253Z,99162.28
2019-06-01T19:45:49.770Z,99166.00
2019-06-01T19:48:19.518Z,99165.20
2019-06-01T19:50:49.676Z,99169.78
2019-06-01T19:53:19.211Z,99170.02
2019-06-01T19:55:48.724Z,99172.25
2019-06-01T19:58:19.231Z,99166.23
2019-06-01T20:00:49.277Z,99170.89
2019-06-01T20:03:22.004Z,99172.28
2019-06-01T20:05:50.589Z,99177.52
2019-06-01T20:08:20.131Z,99185.80
2019-06-01T20:10:49.648Z,99186.02
2019-06-01T20:13:19.359Z,99180.85
2019-06-01T20:15:48.890Z,99181.98
2019-06-01T20:18:19.136Z,99185.70
2019-06-01T20:20:48.970Z,99187.27
2019-06-01T20:23:19.555Z,99184.65
2019-06-01T20:25:49.260Z,99190.77
2019-06-01T20:28:19.678Z,99190.97
2019-06-01T20:30:49.386Z,99190.19
2019-06-01T20:33:20.444Z,99200.59
2019-06-01T20:35:50.413Z,99198.29
2019-06-01T20:38:20.544Z,99200.98
2019-06-01T20:40:50.157Z,99202.44
2019-06-01T20:43:20.832Z,99199.33
2019-06-01T20:45:50.472Z,99202.24
2019-06-01T20:48:20.944Z,99198.08
2019-06-01T20:50:50.630Z,99206.17
2019-06-01T20:53:21.041Z,99208.93
2019-06-01T20:55:51.056Z,99208.22
2019-06-01T20:58:21.975Z,99213.06
2019-06-01T21:00:51.824Z,99207.80
2019-06-01T21:03:21.945Z,99212.02
2019-06-01T21:05:51.583Z,99213.95
2019-06-01T21:08:22.379Z,99213.42
2019-06-01T21:10:52.203Z,99209.03
2019-06-01T21:13:22.273Z,99212.38
2019-06-01T21:15:51.999Z,99215.31
2019-06-01T21:18:22.663Z,99210.70
2019-06-01T21:20:52.410Z,99211.13
2019-06-01T21:23:22.938Z,99214.03
2019-06-01T21:25:52.636Z,99215.95
2019-06-01T21:28:23.697Z,99216.59
2019-06-01T21:30:53.405Z,99214.33
2019-06-01T21:33:26.648Z,99217.39
2019-06-01T21:35:54.246Z,99220.89
2019-06-01T21:38:23.787Z,99220.91
2019-06-01T21:40:53.291Z,99222.49
2019-06-01T21:43:29.285Z,99216.18
2019-06-01T21:45:54.143Z,99220.47
2019-06-01T21:48:24.267Z,99219.07
2019-06-01T21:50:54.036Z,99217.78
2019-06-01T21:53:24.501Z,99217.53
2019-06-01T21:55:54.153Z,99225.22
2019-06-01T21:58:24.533Z,99224.16
2019-06-01T22:00:54.357Z,99224.33
2019-06-01T22:03:25.609Z,99220.66
2019-06-01T22:05:55.326Z,99219.45
2019-06-01T22:08:25.406Z,99221.36
2019-06-01T22:10:55.081Z,99219.84
2019-06-01T22:13:27.086Z,99220.84
2019-06-01T22:15:55.830Z,99217.63
2019-06-01T22:18:25.856Z,99221.48
2019-06-01T22:20:55.442Z,99225.20
2019-06-01T22:23:26.111Z,99221.36
2019-06-01T22:25:55.636Z,99224.58
2019-06-01T22:28:26.278Z,99219.70
2019-06-01T22:30:56.186Z,99224.70
2019-06-01T22:33:26.563Z,99219.45
2019-06-01T22:35:56.522Z,99222.80
2019-06-01T22:38:26.060Z,99215.42
2019-06-01T22:40:55.571Z,99217.66
2019-06-01T22:43:41.411Z,99214.23
2019-06-01T22:45:56.343Z,99212.79
2019-06-01T22:48:26.667Z,99215.78
2019-06-01T22:50:56.718Z,99218.78
2019-06-01T22:53:26.314Z,99215.98
2019-06-01T22:55:55.845Z,99213.61
2019-06-01T22:58:25.382Z,99214.31
2019-06-01T23:00:54.975Z,99212.77
2019-06-01T23:03:25.733Z,99210.03
2019-06-01T23:05:55.294Z,99210.60
2019-06-01T23:08:25.670Z,99211.33
2019-06-01T23:10:55.370Z,99206.32
2019-06-01T23:13:26.132Z,99204.66
2019-06-01T23:15:55.792Z,99204.53
2019-06-01T23:18:25.649Z,99197.25
2019-06-01T23:20:55.372Z,99203.69
2019-06-01T23:23:25.986Z,99200.70
2019-06-01T23:25:55.684Z,99204.30
2019-06-01T23:28:26.214Z,99204.64
2019-06-01T23:30:55.847Z,99207.13
2019-06-01T23:33:25.417Z,99201.02
2019-06-01T23:35:56.137Z,99201.73
2019-06-01T23:38:26.602Z,99197.92
2019-06-01T23:40:56.228Z,99200.89
2019-06-01T23:43:26.958Z,99192.90
2019-06-01T23:45:56.552Z,99194.47
2019-06-01T23:48:27.197Z,99190.77
2019-06-01T23:50:56.770Z,99188.03
2019-06-01T23:53:27.503Z,99189.65
2019-06-01T23:55:57.039Z,99186.22
2019-06-01T23:58:26.540Z,99186.45
